Time;durP1;ratioP1;P1;durP2;ratioP2;P2;SDS_P1;SDS_P2;PMS_P1;PMS_P2;Temp;Humidity;BMP_temperature;BMP_pressure;BME280_temperature;BME280_humidity;BME280_pressure;Samples;Min_cycle;Max_cycle;Signal;HPM_P1;HPM_P2
2022/08/21 00:02:20;;;;;;;9.73;4.20;;;15.00;99.90;;;;;;5012291;28;20085;-86
2022/08/21 00:04:46;;;;;;;7.38;3.75;;;14.90;1.00;;;;;;5014356;28;20037;-86
2022/08/21 00:07:12;;;;;;;8.10;3.80;;;14.90;29.30;;;;;;5022464;28;20038;-87
2022/08/21 00:09:38;;;;;;;7.95;4.13;;;14.80;84.80;;;;;;4983056;28;20408;-86
2022/08/21 00:12:05;;;;;;;10.15;4.10;;;14.70;99.90;;;;;;5014367;28;20097;-87
2022/08/21 00:14:31;;;;;;;8.30;4.30;;;14.70;99.90;;;;;;4995221;28;20783;-86
2022/08/21 00:16:57;;;;;;;7.38;4.00;;;14.70;99.90;;;;;;5030296;28;20185;-86
2022/08/21 00:19:26;;;;;;;10.15;4.35;;;14.60;99.90;;;;;;5025499;28;20057;-85
2022/08/21 00:21:53;;;;;;;10.15;4.00;;;14.50;99.90;;;;;;4983397;28;20033;-86
2022/08/21 00:24:19;;;;;;;7.72;3.80;;;14.50;99.90;;;;;;5002516;28;20049;-86
2022/08/21 00:26:49;;;;;;;7.40;4.38;;;14.40;99.90;;;;;;5031377;28;20026;-86
2022/08/21 00:29:15;;;;;;;10.65;4.03;;;14.40;99.90;;;;;;5006330;28;20037;-86
2022/08/21 00:31:42;;;;;;;8.27;3.85;;;14.40;99.90;;;;;;5030319;28;20192;-86
2022/08/21 00:34:08;;;;;;;7.35;3.88;;;14.30;99.90;;;;;;5002558;28;20536;-87
2022/08/21 00:36:35;;;;;;;6.72;3.75;;;14.30;99.90;;;;;;5015585;28;20390;-85
2022/08/21 00:39:07;;;;;;;9.88;4.20;;;14.20;99.90;;;;;;4985633;28;20065;-87
2022/08/21 00:41:33;;;;;;;8.65;4.00;;;14.20;99.90;;;;;;5013907;28;20049;-86
2022/08/21 00:43:59;;;;;;;7.82;3.92;;;14.10;99.90;;;;;;4988643;28;20080;-86
2022/08/21 00:46:25;;;;;;;5.93;3.70;;;14.00;99.90;;;;;;5030407;28;20086;-86
2022/08/21 00:48:51;;;;;;;5.97;3.20;;;14.00;1.00;;;;;;5014950;28;20042;-85
2022/08/21 00:51:44;;;;;;;6.25;3.47;;;14.00;1.00;;;;;;4989664;28;20046;-86
2022/08/21 00:54:11;;;;;;;8.05;3.58;;;13.90;1.00;;;;;;5018273;28;20069;-87
2022/08/21 00:56:41;;;;;;;7.13;4.03;;;13.90;1.00;;;;;;5017762;28;20148;-86
2022/08/21 00:59:07;;;;;;;8.82;4.00;;;13.90;71.10;;;;;;5032518;28;20080;-86
2022/08/21 01:01:34;;;;;;;10.00;4.40;;;13.80;99.90;;;;;;5011326;28;20493;-86
2022/08/21 01:04:00;;;;;;;8.00;4.30;;;13.80;99.90;;;;;;5003910;28;20177;-86
2022/08/21 01:06:25;;;;;;;6.75;4.00;;;13.80;99.90;;;;;;4994162;28;20042;-86
2022/08/21 01:08:51;;;;;;;6.30;3.83;;;13.80;99.90;;;;;;5036800;28;20465;-86
2022/08/21 01:11:17;;;;;;;8.45;3.90;;;13.70;99.90;;;;;;5040955;28;20132;-86
2022/08/21 01:13:45;;;;;;;8.07;4.50;;;13.70;99.90;;;;;;5001134;28;20042;-86
2022/08/21 01:16:11;;;;;;;7.88;4.38;;;13.70;99.90;;;;;;5032088;28;20448;-86
2022/08/21 01:18:37;;;;;;;6.70;4.00;;;13.60;99.90;;;;;;5010750;28;20051;-86
2022/08/21 01:21:09;;;;;;;8.43;4.38;;;13.60;99.90;;;;;;4993593;28;20047;-86
2022/08/21 01:23:37;;;;;;;7.68;4.07;;;13.50;99.90;;;;;;5009818;28;20052;-87
2022/08/21 01:26:04;;;;;;;6.75;3.92;;;13.60;99.90;;;;;;5007192;28;20493;-87
2022/08/21 01:28:37;;;;;;;8.27;4.68;;;13.50;99.90;;;;;;5012856;28;20479;-86
2022/08/21 01:31:07;;;;;;;7.55;4.90;;;13.50;99.90;;;;;;4993389;28;20087;-86
2022/08/21 01:33:33;;;;;;;7.97;4.68;;;13.50;99.90;;;;;;5005956;28;20134;-86
2022/08/21 01:35:59;;;;;;;7.35;4.70;;;13.50;99.90;;;;;;4991448;28;20456;-86
2022/08/21 01:38:25;;;;;;;8.35;5.00;;;13.60;1.00;;;;;;5012033;28;20144;-87
2022/08/21 01:40:50;;;;;;;6.85;4.60;;;13.60;1.00;;;;;;5027934;28;20123;-87
2022/08/21 01:43:16;;;;;;;10.85;5.43;;;13.60;1.00;;;;;;4992756;28;20039;-86
2022/08/21 01:45:42;;;;;;;8.48;5.47;;;13.60;1.00;;;;;;5011751;28;20034;-87
2022/08/21 01:48:07;;;;;;;9.43;5.97;;;13.60;1.00;;;;;;5006521;28;20136;-87
2022/08/21 01:50:33;;;;;;;9.35;5.82;;;13.70;41.30;;;;;;5006385;28;20390;-87
2022/08/21 01:52:58;;;;;;;11.82;6.50;;;13.60;55.60;;;;;;5011837;28;20029;-87
2022/08/21 01:55:24;;;;;;;10.43;6.63;;;13.70;65.40;;;;;;5015182;28;20129;-87
2022/08/21 01:57:50;;;;;;;9.60;5.95;;;13.70;99.90;;;;;;5035118;28;20042;-87
2022/08/21 02:00:19;;;;;;;9.45;6.32;;;13.70;99.90;;;;;;5011620;28;20117;-87
2022/08/21 02:02:45;;;;;;;12.25;6.60;;;13.70;99.90;;;;;;4983497;28;20330;-86
2022/08/21 02:05:12;;;;;;;10.88;5.88;;;13.70;99.90;;;;;;5007577;28;20119;-87
2022/08/21 02:07:41;;;;;;;9.05;6.40;;;13.60;84.90;;;;;;5041062;28;20363;-87
2022/08/21 02:10:08;;;;;;;12.02;6.68;;;13.70;99.90;;;;;;5033373;28;20034;-87
2022/08/21 02:12:34;;;;;;;11.85;6.45;;;13.70;99.90;;;;;;5025554;28;20042;-87
2022/08/21 02:15:04;;;;;;;9.38;6.47;;;13.70;99.90;;;;;;5003397;28;20040;-88
2022/08/21 02:17:42;;;;;;;12.45;5.88;;;13.70;99.90;;;;;;4994093;28;20443;-87
2022/08/21 02:20:11;;;;;;;11.38;6.32;;;13.50;99.90;;;;;;5004342;28;20481;-87
2022/08/21 02:22:36;;;;;;;10.93;6.57;;;13.60;99.90;;;;;;5008616;28;20563;-87
2022/08/21 02:25:03;;;;;;;9.60;6.85;;;13.60;99.90;;;;;;5012480;28;20056;-86
2022/08/21 02:27:29;;;;;;;10.38;7.35;;;13.60;99.90;;;;;;5009135;28;20462;-87
2022/08/21 02:29:59;;;;;;;10.88;7.72;;;13.60;99.90;;;;;;5035169;28;20172;-87
2022/08/21 02:32:25;;;;;;;9.68;6.80;;;13.60;99.90;;;;;;5000590;28;20479;-87
2022/08/21 02:34:52;;;;;;;10.38;6.88;;;13.60;99.90;;;;;;5018211;28;20455;-86
2022/08/21 02:37:17;;;;;;;10.32;6.80;;;13.60;99.90;;;;;;5013487;28;20065;-87
2022/08/21 02:39:43;;;;;;;12.50;8.10;;;13.60;99.90;;;;;;5026590;28;20052;-86
2022/08/21 02:42:09;;;;;;;15.13;7.50;;;13.50;99.90;;;;;;5031070;28;20190;-88
2022/08/21 02:44:34;;;;;;;9.95;7.28;;;13.50;99.90;;;;;;5009663;28;20133;-88
2022/08/21 02:47:00;;;;;;;10.98;7.97;;;13.60;99.90;;;;;;5007647;28;20042;-86
2022/08/21 02:49:26;;;;;;;14.70;8.02;;;13.60;99.90;;;;;;5026344;28;20048;-87
2022/08/21 02:51:51;;;;;;;15.15;8.43;;;13.60;99.90;;;;;;4996521;28;20600;-86
2022/08/21 02:54:17;;;;;;;12.55;8.45;;;13.60;99.90;;;;;;4993660;28;20110;-87
2022/08/21 02:56:42;;;;;;;13.52;7.95;;;13.60;99.90;;;;;;5004106;28;20064;-87
2022/08/21 02:59:08;;;;;;;10.05;7.63;;;13.50;99.90;;;;;;4999177;28;20069;-88
2022/08/21 03:01:34;;;;;;;11.70;7.57;;;13.50;99.90;;;;;;4994512;28;20037;-86
2022/08/21 03:03:59;;;;;;;9.93;7.50;;;13.50;99.90;;;;;;4996048;28;20050;-86
2022/08/21 03:06:25;;;;;;;13.45;8.90;;;13.50;99.90;;;;;;5004608;28;20452;-88
2022/08/21 03:08:51;;;;;;;13.95;8.55;;;13.50;99.90;;;;;;5038909;28;20051;-86
2022/08/21 03:11:20;;;;;;;14.15;8.80;;;13.50;99.90;;;;;;4993436;28;20111;-87
2022/08/21 03:13:46;;;;;;;13.80;8.73;;;13.50;99.90;;;;;;5002560;28;20736;-87
2022/08/21 03:16:12;;;;;;;13.60;8.90;;;13.60;99.90;;;;;;5028667;28;20056;-87
2022/08/21 03:18:38;;;;;;;15.18;9.05;;;13.60;99.90;;;;;;4996213;28;20229;-88
2022/08/21 03:21:05;;;;;;;16.48;8.65;;;13.60;99.90;;;;;;4996624;28;20463;-87
2022/08/21 03:23:32;;;;;;;13.90;9.00;;;13.60;99.90;;;;;;5032650;28;20048;-87
2022/08/21 03:25:58;;;;;;;12.93;8.70;;;13.60;99.90;;;;;;5027588;28;20037;-87
2022/08/21 03:28:24;;;;;;;13.75;9.13;;;13.60;99.90;;;;;;5028619;28;20069;-87
2022/08/21 03:30:51;;;;;;;12.82;9.23;;;13.50;99.90;;;;;;5031555;28;20037;-87
2022/08/21 03:33:18;;;;;;;16.05;8.98;;;13.60;99.90;;;;;;4991662;28;20095;-88
2022/08/21 03:35:56;;;;;;;14.77;8.65;;;13.60;99.90;;;;;;4999537;28;20563;-87
2022/08/21 03:38:21;;;;;;;11.95;8.98;;;13.60;99.90;;;;;;5030672;28;20377;-87
2022/08/21 03:40:47;;;;;;;15.00;9.00;;;13.60;99.90;;;;;;5032137;28;20040;-87
2022/08/21 03:43:16;;;;;;;12.93;8.57;;;13.60;99.90;;;;;;4987469;28;20057;-86
2022/08/21 03:45:46;;;;;;;13.18;8.90;;;13.60;99.90;;;;;;4987216;28;20447;-87
2022/08/21 03:48:12;;;;;;;12.15;8.77;;;13.60;99.90;;;;;;5036407;28;20104;-87
2022/08/21 03:50:56;;;;;;;12.32;9.07;;;13.60;99.90;;;;;;4993413;28;20050;-87
2022/08/21 03:53:22;;;;;;;16.58;9.05;;;13.60;99.90;;;;;;5008216;28;20045;-87
2022/08/21 03:55:52;;;;;;;13.48;9.15;;;13.60;99.90;;;;;;5025785;28;20033;-87
2022/08/21 03:58:24;;;;;;;12.75;9.02;;;13.50;99.90;;;;;;4994718;28;20064;-87
2022/08/21 04:00:53;;;;;;;12.20;8.85;;;13.60;99.90;;;;;;5006913;28;20401;-87
2022/08/21 04:03:20;;;;;;;14.18;8.77;;;13.60;99.90;;;;;;5004591;28;20052;-87
2022/08/21 04:05:48;;;;;;;18.38;9.50;;;13.60;99.90;;;;;;5027138;28;20223;-87
2022/08/21 04:08:19;;;;;;;14.35;8.80;;;13.60;99.90;;;;;;4998541;28;20045;-87
2022/08/21 04:10:48;;;;;;;11.98;8.60;;;13.60;99.90;;;;;;5029060;28;20046;-87
2022/08/21 04:13:17;;;;;;;13.05;8.52;;;13.60;99.90;;;;;;5008359;28;20151;-87
2022/08/21 04:15:43;;;;;;;13.30;8.45;;;13.60;99.90;;;;;;5004157;28;20137;-87
2022/08/21 04:18:09;;;;;;;16.65;8.27;;;13.60;99.90;;;;;;5019046;28;20042;-87
2022/08/21 04:20:36;;;;;;;13.27;7.75;;;13.60;99.90;;;;;;5013998;28;20041;-86
2022/08/21 04:23:03;;;;;;;12.65;7.93;;;13.60;99.90;;;;;;5006779;28;20041;-88
2022/08/21 04:25:29;;;;;;;11.65;7.82;;;13.60;99.90;;;;;;5006810;28;20040;-88
2022/08/21 04:27:55;;;;;;;12.88;8.18;;;13.60;99.90;;;;;;5024893;28;20157;-87
2022/08/21 04:30:27;;;;;;;13.18;8.55;;;13.60;99.90;;;;;;4986924;28;20525;-87
2022/08/21 04:32:53;;;;;;;13.85;8.70;;;13.50;99.90;;;;;;5004487;28;20050;-87
2022/08/21 04:35:21;;;;;;;13.90;8.55;;;13.50;99.90;;;;;;5031373;28;20123;-88
2022/08/21 04:37:47;;;;;;;11.88;7.82;;;13.60;99.90;;;;;;5030020;28;20045;-87
2022/08/21 04:40:15;;;;;;;11.73;7.70;;;13.60;99.90;;;;;;5010583;28;20044;-87
2022/08/21 04:42:50;;;;;;;14.75;8.13;;;13.60;99.90;;;;;;5018302;28;20056;-87
2022/08/21 04:45:20;;;;;;;12.75;7.93;;;13.60;99.90;;;;;;4999611;28;20030;-86
2022/08/21 04:47:48;;;;;;;18.02;8.27;;;13.70;99.90;;;;;;4988257;28;20568;-88
2022/08/21 04:50:17;;;;;;;10.48;6.78;;;13.70;99.90;;;;;;5020039;28;20060;-87
2022/08/21 04:52:43;;;;;;;11.15;7.78;;;13.80;99.90;;;;;;5029287;28;20209;-87
2022/08/21 04:55:09;;;;;;;12.20;7.35;;;13.80;99.90;;;;;;4986960;28;20065;-88
2022/08/21 04:57:35;;;;;;;12.68;6.97;;;13.80;99.90;;;;;;5025017;28;20046;-87
2022/08/21 05:00:04;;;;;;;10.35;6.78;;;13.90;99.90;;;;;;5005690;28;20057;-87
2022/08/21 05:02:32;;;;;;;10.60;6.80;;;13.90;99.90;;;;;;5024947;28;20056;-87
2022/08/21 05:04:59;;;;;;;13.32;7.38;;;14.00;99.90;;;;;;5004136;28;20037;-88
2022/08/21 05:07:28;;;;;;;11.52;7.15;;;14.10;99.90;;;;;;5033495;28;20041;-88
2022/08/21 05:09:54;;;;;;;12.45;7.10;;;14.10;99.90;;;;;;4984914;28;20030;-87
2022/08/21 05:12:20;;;;;;;10.85;6.78;;;14.20;99.90;;;;;;5002747;28;20030;-86
2022/08/21 05:14:46;;;;;;;12.75;7.13;;;14.30;99.90;;;;;;5009073;28;20136;-87
2022/08/21 05:17:12;;;;;;;12.02;7.22;;;14.30;99.90;;;;;;5035490;28;20030;-87
2022/08/21 05:19:38;;;;;;;13.02;7.07;;;14.30;99.90;;;;;;5007354;28;22167;-87
2022/08/21 05:22:04;;;;;;;9.38;6.75;;;14.50;99.90;;;;;;5012672;28;20125;-87
2022/08/21 05:24:30;;;;;;;11.88;7.45;;;14.50;99.90;;;;;;5019265;28;20379;-87
2022/08/21 05:26:56;;;;;;;13.73;6.65;;;14.60;99.90;;;;;;5030723;28;20109;-87
2022/08/21 05:29:21;;;;;;;14.98;6.80;;;14.70;99.90;;;;;;5044136;28;20277;-87
2022/08/21 05:31:48;;;;;;;15.43;7.22;;;14.80;99.90;;;;;;5013649;28;20552;-87
2022/08/21 05:34:19;;;;;;;11.48;6.22;;;14.90;99.90;;;;;;4989574;28;20047;-88
2022/08/21 05:36:44;;;;;;;10.18;7.00;;;15.00;94.10;;;;;;5024940;28;20037;-87
2022/08/21 05:39:10;;;;;;;11.77;6.70;;;15.10;51.60;;;;;;5005552;28;20045;-87
2022/08/21 05:41:36;;;;;;;13.20;6.50;;;15.20;1.00;;;;;;5006988;28;20453;-86
2022/08/21 05:44:02;;;;;;;8.05;5.90;;;15.30;1.00;;;;;;5004127;28;20049;-87
2022/08/21 05:46:28;;;;;;;11.68;6.07;;;15.30;1.00;;;;;;4995131;28;20046;-87
2022/08/21 05:48:54;;;;;;;9.88;5.63;;;15.40;1.00;;;;;;5012998;28;20520;-87
2022/08/21 05:51:19;;;;;;;14.20;6.00;;;15.50;99.90;;;;;;5008629;28;20034;-86
2022/08/21 05:53:45;;;;;;;10.80;5.63;;;15.50;99.90;;;;;;5012394;28;20043;-87
2022/08/21 05:56:12;;;;;;;10.85;5.85;;;15.60;99.90;;;;;;4990086;28;20045;-87
2022/08/21 05:58:38;;;;;;;8.63;5.40;;;15.70;99.90;;;;;;4989338;28;20125;-87
2022/08/21 06:01:05;;;;;;;12.70;5.53;;;15.80;99.90;;;;;;5009975;28;20045;-87
2022/08/21 06:03:33;;;;;;;10.60;5.63;;;15.90;99.90;;;;;;5004340;28;22214;-87
2022/08/21 06:06:01;;;;;;;9.02;5.13;;;15.90;99.90;;;;;;5001593;28;20070;-87
2022/08/21 06:08:27;;;;;;;11.68;5.15;;;16.00;99.90;;;;;;5033772;28;20037;-87
2022/08/21 06:10:55;;;;;;;11.18;5.60;;;16.10;21.00;;;;;;5035125;28;20033;-86
2022/08/21 06:13:22;;;;;;;16.60;5.63;;;16.20;22.20;;;;;;5028657;28;20792;-87
2022/08/21 06:15:48;;;;;;;12.40;5.38;;;16.30;1.00;;;;;;4989441;28;20044;-87
2022/08/21 06:18:14;;;;;;;11.75;5.32;;;16.40;1.00;;;;;;5009770;28;20053;-87
2022/08/21 06:20:40;;;;;;;12.57;4.82;;;16.50;1.00;;;;;;4989457;28;20124;-88
2022/08/21 06:23:07;;;;;;;13.88;5.35;;;16.60;1.00;;;;;;5030835;28;20160;-87
2022/08/21 06:25:32;;;;;;;8.40;4.38;;;16.70;99.90;;;;;;5023312;28;20218;-88
2022/08/21 06:28:08;;;;;;;8.05;4.75;;;16.80;99.90;;;;;;5005357;28;20563;-87
2022/08/21 06:30:35;;;;;;;9.02;4.63;;;16.80;1.00;;;;;;4992039;28;20411;-86
2022/08/21 06:33:02;;;;;;;12.73;5.18;;;16.90;99.90;;;;;;4993900;28;20042;-86
2022/08/21 06:35:29;;;;;;;7.97;4.68;;;17.00;99.90;;;;;;5007214;28;20099;-87
2022/08/21 06:37:55;;;;;;;10.07;5.07;;;17.00;99.90;;;;;;5005355;28;20077;-86
2022/08/21 06:40:25;;;;;;;11.10;4.78;;;17.10;99.90;;;;;;4989477;28;20045;-87
2022/08/21 06:42:50;;;;;;;10.13;5.00;;;17.30;99.90;;;;;;5030079;28;20077;-85
2022/08/21 06:45:16;;;;;;;8.98;4.40;;;17.30;99.90;;;;;;5004341;28;20073;-86
2022/08/21 06:47:41;;;;;;;12.30;4.28;;;17.40;99.90;;;;;;5027644;28;20045;-87
2022/08/21 06:50:08;;;;;;;11.82;4.50;;;17.50;1.20;;;;;;5017716;28;20063;-86
2022/08/21 06:52:35;;;;;;;11.43;4.28;;;17.60;1.00;;;;;;5030387;28;20124;-87
2022/08/21 06:55:03;;;;;;;10.00;3.90;;;17.60;1.00;;;;;;5016766;28;20378;-86
2022/08/21 06:57:29;;;;;;;10.13;4.88;;;17.70;99.90;;;;;;5006473;28;20038;-87
2022/08/21 06:59:55;;;;;;;9.63;4.28;;;17.80;99.90;;;;;;4992528;28;20599;-86
2022/08/21 07:02:20;;;;;;;8.13;4.40;;;17.70;99.90;;;;;;5015257;28;20260;-86
2022/08/21 07:04:46;;;;;;;9.40;3.72;;;17.90;99.90;;;;;;4987828;28;20446;-85
2022/08/21 07:07:11;;;;;;;9.38;3.88;;;18.00;99.90;;;;;;4988768;28;20424;-85
2022/08/21 07:09:37;;;;;;;11.07;3.67;;;18.00;99.90;;;;;;4987204;28;20299;-87
2022/08/21 07:12:03;;;;;;;9.18;4.38;;;18.10;71.90;;;;;;4986974;28;20117;-86
2022/08/21 07:14:30;;;;;;;7.50;3.60;;;18.20;1.00;;;;;;5002599;28;20041;-86
2022/08/21 07:16:55;;;;;;;10.50;3.78;;;18.20;1.00;;;;;;5002028;28;20099;-87
2022/08/21 07:19:21;;;;;;;10.60;3.50;;;18.20;99.90;;;;;;5012873;28;20045;-86
2022/08/21 07:21:47;;;;;;;7.25;3.65;;;18.30;99.90;;;;;;5001310;28;20188;-85
2022/08/21 07:24:13;;;;;;;7.43;3.20;;;18.40;99.90;;;;;;4989846;28;20041;-86
2022/08/21 07:26:39;;;;;;;12.52;3.10;;;18.50;99.90;;;;;;5020688;28;20508;-87
2022/08/21 07:29:06;;;;;;;9.50;4.03;;;18.60;99.90;;;;;;5005379;28;20091;-85
2022/08/21 07:31:31;;;;;;;8.40;3.13;;;18.60;1.00;;;;;;4997080;28;20042;-86
2022/08/21 07:34:03;;;;;;;6.97;2.83;;;18.70;50.20;;;;;;5024891;28;20111;-85
2022/08/21 07:36:29;;;;;;;10.00;3.20;;;18.80;1.00;;;;;;5003696;28;20067;-86
2022/08/21 07:38:55;;;;;;;8.25;3.33;;;18.80;1.00;;;;;;4992094;28;20046;-86
2022/08/21 07:41:28;;;;;;;12.15;3.38;;;18.90;99.90;;;;;;5010245;28;20034;-85
2022/08/21 07:43:55;;;;;;;6.47;3.22;;;18.90;99.90;;;;;;5011258;28;20038;-86
2022/08/21 07:46:21;;;;;;;9.55;3.28;;;18.90;74.80;;;;;;4997491;28;20077;-86
2022/08/21 07:48:47;;;;;;;9.20;3.40;;;19.00;16.90;;;;;;5000651;28;20115;-86
2022/08/21 07:51:14;;;;;;;6.20;2.70;;;19.10;1.00;;;;;;5010676;28;20160;-87
2022/08/21 07:53:40;;;;;;;10.80;2.95;;;19.30;99.90;;;;;;4987429;28;20517;-86
2022/08/21 07:56:08;;;;;;;9.13;3.08;;;19.30;8.00;;;;;;4983008;28;20057;-85
2022/08/21 07:58:34;;;;;;;7.38;2.63;;;19.40;1.00;;;;;;4999089;28;20053;-86
2022/08/21 08:00:59;;;;;;;7.22;2.70;;;19.40;99.90;;;;;;5026363;28;20063;-86
2022/08/21 08:03:25;;;;;;;9.35;2.97;;;19.50;97.00;;;;;;5006172;28;20494;-86
2022/08/21 08:05:51;;;;;;;11.02;3.20;;;19.60;99.90;;;;;;4988435;28;20045;-85
2022/08/21 08:08:17;;;;;;;9.23;2.90;;;19.70;1.00;;;;;;5000273;28;20368;-87
2022/08/21 08:10:43;;;;;;;6.35;2.80;;;19.80;99.90;;;;;;5022863;28;20577;-86
2022/08/21 08:13:12;;;;;;;10.27;3.00;;;19.90;99.90;;;;;;4997043;28;20113;-86
2022/08/21 08:15:38;;;;;;;9.57;2.28;;;19.90;99.90;;;;;;4984496;28;20140;-87
2022/08/21 08:18:06;;;;;;;5.32;2.38;;;20.00;99.90;;;;;;5013015;28;20060;-86
2022/08/21 08:20:32;;;;;;;8.20;2.65;;;19.90;99.90;;;;;;5008267;28;20046;-85
2022/08/21 08:22:58;;;;;;;7.72;2.28;;;20.10;99.90;;;;;;5002327;28;20567;-85
2022/08/21 08:25:25;;;;;;;7.68;2.60;;;20.10;1.00;;;;;;4991157;28;20065;-86
2022/08/21 08:27:50;;;;;;;5.68;2.05;;;20.20;29.10;;;;;;4991596;28;20552;-86
2022/08/21 08:30:18;;;;;;;7.80;2.55;;;20.40;99.90;;;;;;4987169;28;20153;-86
2022/08/21 08:32:44;;;;;;;6.50;2.75;;;20.40;99.90;;;;;;5025428;28;20240;-85
2022/08/21 08:35:11;;;;;;;7.93;2.20;;;20.40;99.90;;;;;;4998468;28;20040;-85
2022/08/21 08:37:39;;;;;;;6.28;2.50;;;20.60;99.90;;;;;;5046208;28;20532;-86
2022/08/21 08:40:14;;;;;;;8.13;2.30;;;20.70;99.90;;;;;;5007370;28;20557;-86
2022/08/21 08:42:40;;;;;;;;;;;20.70;99.90;;;;;;4989574;28;20545;-86
2022/08/21 08:45:13;;;;;;;6.25;2.13;;;20.80;1.00;;;;;;5002884;28;19947;-86
2022/08/21 08:47:44;;;;;;;7.07;2.08;;;21.00;99.90;;;;;;5009764;28;20108;-86
2022/08/21 08:50:23;;;;;;;9.00;1.90;;;21.10;99.90;;;;;;5010101;28;20041;-85
2022/08/21 08:52:54;;;;;;;4.97;1.95;;;21.00;1.00;;;;;;5012861;28;20048;-86
2022/08/21 08:55:32;;;;;;;6.75;2.13;;;21.10;34.70;;;;;;5019115;28;20038;-86
2022/08/21 08:57:58;;;;;;;7.35;2.03;;;21.40;1.00;;;;;;5011971;28;20151;-87
2022/08/21 09:00:24;;;;;;;9.43;2.40;;;21.40;99.90;;;;;;4995733;28;20145;-85
2022/08/21 09:02:54;;;;;;;7.50;2.20;;;21.50;99.90;;;;;;5034825;28;20081;-85
2022/08/21 09:05:40;;;;;;;6.85;2.20;;;21.70;99.90;;;;;;5014034;28;20102;-85
2022/08/21 09:08:34;;;;;;;4.80;2.20;;;21.70;99.90;;;;;;5036697;28;20695;-86
2022/08/21 09:11:11;;;;;;;5.80;2.13;;;21.70;99.90;;;;;;5009049;28;20112;-86
2022/08/21 09:13:54;;;;;;;9.30;2.40;;;22.00;1.00;;;;;;4997311;28;20096;-87
2022/08/21 09:16:47;;;;;;;6.65;2.55;;;22.00;99.90;;;;;;5008308;28;20127;-86
2022/08/21 09:19:51;;;;;;;5.25;2.30;;;22.10;1.00;;;;;;5006416;28;20046;-86
2022/08/21 09:22:42;;;;;;;5.07;1.85;;;22.00;60.00;;;;;;5029350;28;20044;-86
2022/08/21 09:25:22;;;;;;;7.50;2.22;;;22.20;99.90;;;;;;5007500;28;20533;-86
2022/08/21 09:27:48;;;;;;;8.13;2.40;;;22.20;1.00;;;;;;5003029;28;20120;-86
2022/08/21 09:30:14;;;;;;;7.95;3.05;;;22.20;1.00;;;;;;4989352;28;20034;-86
2022/08/21 09:32:41;;;;;;;7.50;2.28;;;22.40;99.90;;;;;;5013153;28;20374;-86
2022/08/21 09:35:14;;;;;;;10.13;2.58;;;22.10;1.00;;;;;;5022339;28;20113;-86
2022/08/21 09:37:52;;;;;;;6.40;2.60;;;22.20;1.00;;;;;;5011353;28;20093;-86
2022/08/21 09:40:30;;;;;;;10.68;2.80;;;22.40;16.40;;;;;;5031920;28;20038;-86
2022/08/21 09:43:21;;;;;;;8.40;2.58;;;22.40;92.70;;;;;;4996279;28;20052;-86
2022/08/21 09:45:48;;;;;;;7.00;2.42;;;22.60;99.90;;;;;;4990550;28;20394;-86
2022/08/21 09:48:24;;;;;;;9.48;2.78;;;22.90;99.90;;;;;;4991349;28;20417;-87
2022/08/21 09:50:52;;;;;;;7.47;2.47;;;23.10;90.60;;;;;;5033560;28;20492;-86
2022/08/21 09:53:28;;;;;;;8.90;2.70;;;23.40;99.90;;;;;;5008589;28;20072;-86
2022/08/21 09:58:49;;;;;;;6.13;2.47;;;23.10;99.90;;;;;;5036893;28;20415;-86
2022/08/21 10:01:17;;;;;;;5.80;2.00;;;23.30;99.90;;;;;;5010155;28;20051;-86
2022/08/21 10:03:42;;;;;;;12.10;2.45;;;23.40;1.00;;;;;;4995095;28;20192;-86
2022/08/21 10:06:10;;;;;;;5.95;2.45;;;23.30;1.00;;;;;;5026651;28;20493;-85
2022/08/21 10:08:39;;;;;;;8.90;2.22;;;23.50;1.00;;;;;;5027328;28;20067;-85
2022/08/21 10:11:08;;;;;;;8.18;2.22;;;23.40;29.00;;;;;;5016051;28;20049;-86
2022/08/21 10:14:15;;;;;;;8.15;2.50;;;23.60;99.90;;;;;;5004619;28;20402;-87
2022/08/21 10:16:59;;;;;;;9.48;2.70;;;23.80;99.90;;;;;;5013498;28;20103;-86
2022/08/21 10:19:47;;;;;;;5.72;2.13;;;24.00;99.90;;;;;;5009397;28;20043;-86
2022/08/21 10:22:34;;;;;;;8.18;2.63;;;24.10;1.00;;;;;;4995288;28;20128;-86
2022/08/21 10:25:08;;;;;;;6.03;2.17;;;23.70;99.90;;;;;;4998144;28;20038;-86
2022/08/21 10:27:47;;;;;;;5.38;2.20;;;23.40;96.10;;;;;;5014494;28;20048;-86
2022/08/21 10:30:17;;;;;;;9.02;2.70;;;23.80;62.20;;;;;;5007881;28;20030;-85
2022/08/21 10:32:52;;;;;;;5.13;2.25;;;23.90;99.90;;;;;;5028561;28;21641;-87
2022/08/21 10:35:30;;;;;;;7.63;2.20;;;24.00;99.90;;;;;;5001903;28;20038;-87
2022/08/21 10:38:01;;;;;;;5.68;1.88;;;23.50;57.40;;;;;;4990210;28;20072;-86
2022/08/21 10:40:30;;;;;;;8.00;2.30;;;23.60;99.90;;;;;;4988365;28;20042;-86
2022/08/21 10:43:23;;;;;;;6.57;2.15;;;24.10;1.00;;;;;;4987503;28;20040;-84
2022/08/21 10:46:47;;;;;;;6.55;2.08;;;24.30;99.90;;;;;;5001502;28;20036;-86
2022/08/21 10:49:30;;;;;;;7.32;2.00;;;25.00;23.10;;;;;;4994118;28;20148;-86
2022/08/21 10:52:13;;;;;;;8.13;1.98;;;24.70;1.00;;;;;;4947149;28;20034;-86
2022/08/21 10:54:50;;;;;;;8.27;2.42;;;24.20;1.00;;;;;;4998314;28;20035;-86
2022/08/21 10:57:26;;;;;;;6.18;2.00;;;23.70;1.00;;;;;;5005943;28;20052;-86
2022/08/21 11:00:12;;;;;;;8.10;2.33;;;24.30;1.00;;;;;;4994028;28;20049;-86
2022/08/21 11:03:16;;;;;;;6.97;2.15;;;24.40;1.00;;;;;;5024588;28;20105;-84
2022/08/21 11:05:44;;;;;;;6.50;1.60;;;24.20;1.00;;;;;;5006036;28;20066;-86
2022/08/21 11:08:14;;;;;;;4.78;1.60;;;23.50;1.00;;;;;;5026246;28;20371;-86
2022/08/21 11:10:52;;;;;;;6.80;2.08;;;23.40;1.00;;;;;;5008344;28;20485;-86
2022/08/21 11:13:27;;;;;;;8.13;2.10;;;23.30;1.00;;;;;;4992433;28;20207;-85
2022/08/21 11:16:03;;;;;;;5.10;2.00;;;23.10;1.00;;;;;;5008251;28;20077;-85
2022/08/21 11:18:44;;;;;;;4.45;1.65;;;23.10;1.00;;;;;;5000041;28;20036;-86
2022/08/21 11:21:13;;;;;;;6.07;1.98;;;23.30;47.60;;;;;;5018250;28;20373;-83
2022/08/21 11:23:50;;;;;;;5.82;1.77;;;23.40;1.00;;;;;;5011671;28;20045;-86
2022/08/21 11:26:35;;;;;;;8.32;2.08;;;23.40;1.00;;;;;;5016053;28;20256;-86
2022/08/21 11:29:09;;;;;;;6.85;2.00;;;23.30;80.40;;;;;;5000998;28;20125;-85
2022/08/21 11:31:55;;;;;;;4.82;2.03;;;23.10;64.90;;;;;;5008595;28;20060;-85
2022/08/21 11:34:49;;;;;;;3.00;1.60;;;23.10;1.00;;;;;;5025637;28;20037;-84
2022/08/21 11:37:34;;;;;;;8.38;2.17;;;23.10;1.00;;;;;;5023021;28;20034;-86
2022/08/21 11:40:29;;;;;;;4.82;2.30;;;22.80;1.00;;;;;;4995366;28;20059;-86
2022/08/21 11:43:03;;;;;;;7.15;2.00;;;22.60;99.90;;;;;;4990420;28;20046;-85
2022/08/21 11:45:49;;;;;;;5.10;2.17;;;22.60;99.90;;;;;;5002709;28;20041;-86
2022/08/21 11:48:48;;;;;;;8.48;2.67;;;22.70;99.90;;;;;;5008928;28;20033;-86
2022/08/21 11:51:22;;;;;;;6.88;2.60;;;22.80;94.70;;;;;;5013971;28;20437;-84
2022/08/21 11:54:03;;;;;;;6.07;2.60;;;23.70;99.90;;;;;;5018970;28;20042;-85
2022/08/21 11:56:43;;;;;;;8.48;2.50;;;24.10;99.90;;;;;;5027538;28;20129;-86
2022/08/21 11:59:17;;;;;;;8.65;2.70;;;23.90;99.90;;;;;;5012605;28;20046;-90
2022/08/21 12:01:45;;;;;;;5.38;2.20;;;23.60;48.70;;;;;;5016754;28;20155;-87
2022/08/21 12:04:21;;;;;;;9.52;2.63;;;23.70;99.90;;;;;;4994286;28;20033;-88
2022/08/21 12:06:49;;;;;;;7.05;2.20;;;24.00;99.90;;;;;;5020282;28;20049;-87
2022/08/21 12:09:23;;;;;;;6.65;2.25;;;24.10;1.00;;;;;;5023519;28;20041;-87
2022/08/21 12:12:04;;;;;;;7.93;2.30;;;24.30;1.00;;;;;;5014287;28;20081;-87
2022/08/21 12:14:43;;;;;;;5.53;2.05;;;24.70;1.00;;;;;;5007872;28;20042;-89
2022/08/21 12:17:20;;;;;;;6.88;2.30;;;24.70;1.00;;;;;;5025354;28;20038;-87
2022/08/21 12:20:14;;;;;;;4.25;2.28;;;24.90;99.90;;;;;;5042299;28;20413;-88
2022/08/21 12:22:41;;;;;;;6.93;2.20;;;25.30;99.90;;;;;;5008188;28;20061;-88
2022/08/21 12:25:15;;;;;;;6.25;2.22;;;25.30;99.90;;;;;;4991313;28;20305;-88
2022/08/21 12:27:51;;;;;;;8.48;2.60;;;25.10;99.90;;;;;;5012212;28;20045;-88
2022/08/21 12:30:26;;;;;;;7.35;2.38;;;24.60;99.90;;;;;;5015221;28;20425;-88
2022/08/21 12:33:03;;;;;;;;;;;24.30;99.90;;;;;;4996534;28;20049;-88
2022/08/21 12:35:44;;;;;;;6.32;2.25;;;24.40;99.90;;;;;;5023000;28;20329;-87
2022/08/21 12:38:18;;;;;;;6.45;2.28;;;24.30;99.90;;;;;;5013981;28;20437;-87
2022/08/21 12:41:10;;;;;;;6.35;2.20;;;24.00;99.90;;;;;;5027377;28;20144;-87
2022/08/21 12:43:42;;;;;;;6.05;1.90;;;24.20;99.90;;;;;;5012624;28;20038;-89
2022/08/21 12:46:25;;;;;;;5.60;1.98;;;24.20;99.90;;;;;;5012368;28;20037;-87
2022/08/21 12:49:03;;;;;;;5.75;2.03;;;24.10;99.90;;;;;;5045726;28;20046;-88
2022/08/21 12:51:43;;;;;;;7.72;2.05;;;24.30;99.90;;;;;;4994194;28;20041;-86
2022/08/21 12:54:09;;;;;;;5.78;1.90;;;24.30;99.90;;;;;;5020037;28;20135;-86
2022/08/21 12:56:38;;;;;;;7.60;2.20;;;24.20;1.00;;;;;;4992394;28;20114;-88
2022/08/21 12:59:11;;;;;;;7.88;2.00;;;24.00;99.90;;;;;;5018251;28;20471;-87
2022/08/21 13:01:49;;;;;;;8.07;2.40;;;23.60;99.90;;;;;;5013046;28;20473;-87
2022/08/21 13:04:22;;;;;;;5.38;2.13;;;23.30;99.90;;;;;;5021008;28;20511;-86
2022/08/21 13:06:52;;;;;;;5.88;1.90;;;23.30;1.00;;;;;;4994988;28;20100;-87